createdAt,value
2019-03-25T00:00:23.874Z,108.80
2019-03-25T00:01:29.007Z,114.10
2019-03-25T00:02:32.460Z,119.17
2019-03-25T00:03:35.967Z,110.25
2019-03-25T00:04:39.481Z,110.45
2019-03-25T00:05:42.919Z,108.27
2019-03-25T00:06:46.517Z,109.17
2019-03-25T00:07:49.964Z,105.03
2019-03-25T00:09:04.977Z,108.78
2019-03-25T00:09:58.720Z,100.02
2019-03-25T00:11:02.340Z,109.52
2019-03-25T00:12:05.853Z,112.83
2019-03-25T00:13:09.289Z,113.12
2019-03-25T00:14:12.803Z,107.37
2019-03-25T00:15:16.245Z,108.35
2019-03-25T00:16:19.750Z,107.43
2019-03-25T00:17:23.300Z,107.32
2019-03-25T00:18:26.773Z,109.52
2019-03-25T00:19:30.217Z,110.92
2019-03-25T00:20:33.685Z,122.17
2019-03-25T00:21:37.145Z,108.03
2019-03-25T00:22:40.577Z,109.40
2019-03-25T00:23:44.025Z,117.57
2019-03-25T00:24:47.458Z,113.12
2019-03-25T00:25:50.906Z,121.97
2019-03-25T00:26:54.616Z,109.07
2019-03-25T00:27:58.360Z,119.28
2019-03-25T00:29:01.927Z,110.88
2019-03-25T00:30:06.385Z,122.58
2019-03-25T00:31:09.904Z,108.27
2019-03-25T00:32:13.503Z,101.12
2019-03-25T00:33:16.891Z,112.35
2019-03-25T00:34:20.496Z,115.20
2019-03-25T00:35:23.997Z,107.63
2019-03-25T00:36:27.440Z,112.22
2019-03-25T00:37:30.902Z,108.55
2019-03-25T00:38:34.477Z,122.00
2019-03-25T00:39:37.992Z,120.33
2019-03-25T00:40:41.513Z,114.17
2019-03-25T00:41:45.101Z,125.05
2019-03-25T00:42:48.811Z,112.97
2019-03-25T00:43:52.399Z,110.80
2019-03-25T00:44:55.979Z,108.52
2019-03-25T00:45:59.636Z,111.03
2019-03-25T00:47:03.235Z,116.80
2019-03-25T00:48:06.748Z,103.27
2019-03-25T00:49:10.306Z,108.90
2019-03-25T00:50:13.834Z,114.70
2019-03-25T00:51:17.277Z,110.52
2019-03-25T00:52:20.808Z,105.92
2019-03-25T00:53:24.387Z,111.42
2019-03-25T00:54:27.842Z,108.25
2019-03-25T00:55:31.266Z,118.65
2019-03-25T00:56:34.799Z,110.68
2019-03-25T00:57:38.300Z,115.00
2019-03-25T00:58:41.882Z,111.10
2019-03-25T00:59:45.398Z,118.22
2019-03-25T01:00:49.016Z,112.72
2019-03-25T01:01:52.594Z,103.38
2019-03-25T01:02:56.115Z,108.92
2019-03-25T01:03:59.627Z,105.63
2019-03-25T01:05:03.171Z,114.70
2019-03-25T01:06:06.693Z,111.45
2019-03-25T01:07:10.253Z,107.15
2019-03-25T01:08:13.782Z,114.10
2019-03-25T01:09:17.219Z,107.90
2019-03-25T01:10:20.751Z,115.77
2019-03-25T01:11:24.364Z,112.00
2019-03-25T01:12:27.872Z,120.30
2019-03-25T01:13:31.315Z,110.90
2019-03-25T01:14:34.815Z,117.25
2019-03-25T01:15:38.295Z,112.72
2019-03-25T01:16:41.836Z,108.90
2019-03-25T01:17:45.365Z,105.45
2019-03-25T01:18:49.022Z,103.22
2019-03-25T01:19:52.574Z,115.03
2019-03-25T01:20:56.091Z,125.20
2019-03-25T01:21:59.524Z,121.25
2019-03-25T01:23:03.176Z,110.42
2019-03-25T01:24:06.746Z,105.12
2019-03-25T01:25:10.255Z,116.42
2019-03-25T01:26:13.780Z,114.45
2019-03-25T01:27:17.218Z,103.75
2019-03-25T01:28:20.676Z,110.78
2019-03-25T01:29:24.122Z,108.42
2019-03-25T01:30:27.617Z,104.55
2019-03-25T01:31:31.072Z,105.40
2019-03-25T01:32:34.557Z,110.63
2019-03-25T01:33:38.023Z,108.27
2019-03-25T01:34:41.540Z,111.12
2019-03-25T01:35:45.042Z,96.90
2019-03-25T01:36:48.488Z,110.28
2019-03-25T01:37:52.021Z,107.22
2019-03-25T01:38:55.488Z,108.27
2019-03-25T01:39:58.936Z,112.90
2019-03-25T01:41:02.376Z,107.43
2019-03-25T01:42:05.816Z,98.85
2019-03-25T01:43:09.288Z,103.78
2019-03-25T01:44:12.756Z,120.22
2019-03-25T01:45:16.263Z,113.95
2019-03-25T01:46:19.775Z,106.45
2019-03-25T01:47:23.216Z,104.63
2019-03-25T01:48:26.676Z,111.55
2019-03-25T01:49:30.132Z,111.12
2019-03-25T01:50:33.641Z,113.10
2019-03-25T01:51:37.146Z,112.68
2019-03-25T01:52:40.660Z,111.65
2019-03-25T01:53:44.125Z,107.00
2019-03-25T01:54:47.577Z,108.75
2019-03-25T01:55:51.028Z,111.95
2019-03-25T01:56:54.468Z,106.63
2019-03-25T01:57:57.924Z,114.37
2019-03-25T01:59:01.378Z,115.05
2019-03-25T02:00:06.763Z,115.60
2019-03-25T02:01:10.277Z,107.25
2019-03-25T02:02:13.752Z,107.58
2019-03-25T02:03:17.214Z,107.97
2019-03-25T02:04:20.674Z,111.32
2019-03-25T02:05:24.117Z,113.15
2019-03-25T02:06:27.560Z,109.12
2019-03-25T02:07:31.006Z,110.00
2019-03-25T02:08:34.438Z,112.65
2019-03-25T02:09:37.946Z,113.68
2019-03-25T02:10:41.344Z,111.83
2019-03-25T02:11:44.775Z,110.12
2019-03-25T02:12:48.217Z,115.37
2019-03-25T02:13:51.649Z,107.30
2019-03-25T02:14:55.112Z,117.25
2019-03-25T02:15:58.624Z,105.83
2019-03-25T02:17:02.075Z,110.85
2019-03-25T02:18:05.499Z,104.83
2019-03-25T02:19:08.936Z,111.92
2019-03-25T02:20:12.617Z,110.10
2019-03-25T02:21:16.061Z,108.75
2019-03-25T02:22:19.500Z,113.83
2019-03-25T02:23:22.953Z,117.15
2019-03-25T02:24:26.462Z,110.30
2019-03-25T02:25:29.911Z,110.97
2019-03-25T02:26:33.354Z,101.00
2019-03-25T02:27:36.798Z,111.37
2019-03-25T02:28:40.235Z,108.55
2019-03-25T02:29:43.680Z,111.75
2019-03-25T02:30:47.311Z,117.15
2019-03-25T02:31:50.761Z,106.00
2019-03-25T02:32:54.214Z,103.35
2019-03-25T02:33:57.665Z,107.55
2019-03-25T02:35:01.103Z,113.50
2019-03-25T02:36:04.652Z,101.95
2019-03-25T02:37:08.151Z,109.40
2019-03-25T02:38:11.744Z,107.97
2019-03-25T02:39:15.178Z,110.95
2019-03-25T02:40:18.622Z,119.53
2019-03-25T02:41:22.085Z,106.65
2019-03-25T02:42:25.531Z,112.50
2019-03-25T02:43:28.974Z,107.90
2019-03-25T02:44:32.449Z,109.50
2019-03-25T02:45:35.891Z,105.87
2019-03-25T02:46:39.471Z,117.57
2019-03-25T02:47:42.989Z,113.10
2019-03-25T02:48:46.438Z,124.30
2019-03-25T02:49:49.882Z,120.47
2019-03-25T02:50:53.321Z,111.85
2019-03-25T02:51:56.813Z,122.10
2019-03-25T02:53:00.285Z,106.67
2019-03-25T02:54:03.801Z,110.80
2019-03-25T02:55:07.594Z,111.00
2019-03-25T02:56:11.040Z,110.17
2019-03-25T02:57:14.487Z,120.77
2019-03-25T02:58:17.925Z,113.22
2019-03-25T02:59:21.382Z,115.00
2019-03-25T03:00:38.592Z,117.90
2019-03-25T03:01:42.110Z,118.10
2019-03-25T03:02:45.576Z,107.43
2019-03-25T03:03:49.021Z,110.17
2019-03-25T03:04:52.523Z,130.78
2019-03-25T03:05:55.959Z,117.80
2019-03-25T03:06:59.411Z,116.33
2019-03-25T03:08:02.873Z,119.00
2019-03-25T03:09:09.115Z,116.67
2019-03-25T03:10:13.197Z,115.80
2019-03-25T03:11:16.632Z,116.00
2019-03-25T03:12:20.068Z,127.07
2019-03-25T03:13:23.528Z,114.67
2019-03-25T03:14:27.046Z,119.13
2019-03-25T03:15:30.491Z,111.17
2019-03-25T03:16:33.935Z,119.77
2019-03-25T03:17:37.396Z,115.70
2019-03-25T03:18:40.841Z,123.15
2019-03-25T03:19:44.283Z,112.50
2019-03-25T03:20:47.720Z,117.60
2019-03-25T03:21:51.161Z,114.82
2019-03-25T03:22:54.606Z,115.60
2019-03-25T03:23:58.057Z,123.62
2019-03-25T03:25:01.507Z,115.03
2019-03-25T03:26:05.097Z,121.75
2019-03-25T03:27:08.536Z,111.80
2019-03-25T03:28:12.066Z,120.65
2019-03-25T03:29:15.566Z,129.85
2019-03-25T03:30:18.972Z,126.02
2019-03-25T03:31:22.435Z,121.15
2019-03-25T03:32:25.882Z,121.50
2019-03-25T03:33:29.331Z,113.25
2019-03-25T03:34:32.795Z,125.27
2019-03-25T03:35:36.266Z,123.60
2019-03-25T03:36:39.702Z,115.42
2019-03-25T03:37:43.144Z,124.87
2019-03-25T03:38:46.683Z,119.33
2019-03-25T03:39:50.130Z,118.55
2019-03-25T03:40:53.582Z,125.22
2019-03-25T03:41:57.279Z,121.20
2019-03-25T03:43:00.727Z,119.20
2019-03-25T03:44:04.252Z,122.95
2019-03-25T03:45:08.735Z,123.02
2019-03-25T03:46:12.182Z,124.47
2019-03-25T03:47:15.626Z,118.28
2019-03-25T03:48:19.153Z,115.00
2019-03-25T03:49:22.615Z,117.30
2019-03-25T03:50:27.297Z,120.28
2019-03-25T03:51:30.808Z,120.45
2019-03-25T03:52:35.688Z,125.12
2019-03-25T03:53:39.518Z,113.97
2019-03-25T03:54:43.093Z,116.80
2019-03-25T03:55:47.216Z,115.40
2019-03-25T03:56:53.444Z,118.93
2019-03-25T03:57:57.392Z,115.88
2019-03-25T03:59:03.967Z,124.30
2019-03-25T04:00:08.204Z,121.05
2019-03-25T04:01:11.717Z,128.15
2019-03-25T04:02:15.155Z,115.75
2019-03-25T04:03:18.664Z,115.42
2019-03-25T04:04:22.118Z,119.57
2019-03-25T04:05:25.633Z,119.13
2019-03-25T04:06:29.142Z,119.22
2019-03-25T04:07:32.582Z,124.65
2019-03-25T04:08:36.023Z,125.33
2019-03-25T04:09:39.615Z,125.72
2019-03-25T04:10:43.122Z,126.15
2019-03-25T04:11:46.631Z,117.70
2019-03-25T04:12:51.603Z,113.60
2019-03-25T04:13:55.191Z,124.90
2019-03-25T04:14:58.745Z,110.57
2019-03-25T04:16:02.230Z,111.75
2019-03-25T04:17:05.729Z,110.55
2019-03-25T04:18:09.232Z,112.68
2019-03-25T04:19:12.757Z,119.90
2019-03-25T04:20:16.215Z,111.42
2019-03-25T04:21:19.648Z,128.68
2019-03-25T04:22:23.165Z,113.95
2019-03-25T04:23:26.602Z,111.85
2019-03-25T04:24:30.054Z,117.53
2019-03-25T04:25:33.578Z,123.10
2019-03-25T04:26:37.066Z,117.62
2019-03-25T04:27:40.457Z,122.33
2019-03-25T04:28:43.883Z,114.08
2019-03-25T04:29:47.347Z,117.33
2019-03-25T04:30:51.023Z,122.95
2019-03-25T04:31:54.530Z,119.00
2019-03-25T04:32:57.972Z,114.75
2019-03-25T04:34:01.416Z,109.03
2019-03-25T04:35:05.919Z,115.57
2019-03-25T04:36:09.327Z,115.25
2019-03-25T04:37:12.823Z,106.72
2019-03-25T04:38:16.338Z,113.62
2019-03-25T04:39:19.786Z,124.87
2019-03-25T04:40:23.314Z,108.30
2019-03-25T04:41:26.753Z,101.22
2019-03-25T04:42:30.263Z,120.00
2019-03-25T04:43:33.697Z,113.85
2019-03-25T04:44:37.152Z,109.32
2019-03-25T04:45:40.587Z,122.98
2019-03-25T04:46:44.024Z,120.20
2019-03-25T04:47:47.462Z,118.02
2019-03-25T04:48:50.903Z,121.85
2019-03-25T04:49:54.355Z,110.52
2019-03-25T04:50:57.792Z,107.22
2019-03-25T04:52:01.228Z,120.35
2019-03-25T04:53:04.730Z,115.50
2019-03-25T04:54:08.168Z,123.60
2019-03-25T04:55:11.768Z,112.97
2019-03-25T04:56:15.207Z,113.40
2019-03-25T04:57:18.637Z,119.57
2019-03-25T04:58:22.108Z,118.45
2019-03-25T04:59:25.538Z,116.93
2019-03-25T05:00:34.114Z,128.38
2019-03-25T05:01:37.552Z,127.38
2019-03-25T05:02:41.060Z,118.90
2019-03-25T05:03:44.496Z,136.20
2019-03-25T05:04:47.952Z,129.07
2019-03-25T05:05:51.400Z,120.33
2019-03-25T05:06:54.831Z,124.38
2019-03-25T05:07:58.339Z,126.87
2019-03-25T05:09:01.772Z,128.45
2019-03-25T05:10:08.596Z,120.22
2019-03-25T05:11:12.096Z,127.47
2019-03-25T05:12:15.533Z,125.67
2019-03-25T05:13:18.969Z,124.47
2019-03-25T05:14:22.411Z,138.62
2019-03-25T05:15:25.876Z,120.80
2019-03-25T05:16:29.361Z,129.60
2019-03-25T05:17:32.844Z,121.97
2019-03-25T05:18:36.281Z,138.62
2019-03-25T05:19:39.724Z,128.30
2019-03-25T05:20:43.176Z,121.33
2019-03-25T05:21:46.676Z,123.58
2019-03-25T05:22:50.287Z,137.80
2019-03-25T05:23:53.724Z,140.30
2019-03-25T05:24:57.164Z,130.22
2019-03-25T05:26:00.622Z,125.25
2019-03-25T05:27:04.136Z,125.05
2019-03-25T05:28:07.600Z,134.65
2019-03-25T05:29:11.037Z,122.13
2019-03-25T05:30:14.622Z,123.60
2019-03-25T05:31:18.058Z,129.90
2019-03-25T05:32:21.501Z,121.55
2019-03-25T05:33:25.012Z,133.12
2019-03-25T05:34:28.510Z,116.37
2019-03-25T05:35:31.967Z,121.87
2019-03-25T05:36:35.472Z,113.80
2019-03-25T05:37:38.911Z,111.52
2019-03-25T05:38:42.347Z,124.65
2019-03-25T05:39:45.792Z,122.55
2019-03-25T05:40:49.313Z,135.90
2019-03-25T05:41:52.756Z,114.92
2019-03-25T05:42:56.190Z,119.70
2019-03-25T05:43:59.628Z,121.57
2019-03-25T05:45:03.345Z,123.20
2019-03-25T05:46:06.798Z,112.83
2019-03-25T05:47:10.238Z,113.08
2019-03-25T05:48:13.736Z,105.63
2019-03-25T05:49:17.174Z,115.32
2019-03-25T05:50:20.676Z,118.08
2019-03-25T05:51:24.128Z,108.07
2019-03-25T05:52:27.568Z,113.97
2019-03-25T05:53:31.021Z,111.08
2019-03-25T05:54:34.456Z,119.87
2019-03-25T05:55:37.907Z,117.77
2019-03-25T05:56:41.344Z,103.83
2019-03-25T05:57:44.792Z,106.92
2019-03-25T05:58:48.295Z,105.50
2019-03-25T05:59:51.727Z,111.80
2019-03-25T06:00:55.185Z,109.03
2019-03-25T06:01:58.686Z,109.45
2019-03-25T06:03:02.281Z,114.52
2019-03-25T06:04:05.711Z,97.67
2019-03-25T06:05:09.284Z,94.32
2019-03-25T06:06:12.748Z,103.27
2019-03-25T06:07:16.169Z,91.47
2019-03-25T06:08:19.598Z,95.20
2019-03-25T06:09:23.030Z,89.72
2019-03-25T06:10:26.457Z,85.72
2019-03-25T06:11:29.909Z,91.00
2019-03-25T06:12:33.341Z,93.80
2019-03-25T06:13:36.788Z,94.50
2019-03-25T06:14:40.226Z,78.70
2019-03-25T06:15:43.662Z,85.53
2019-03-25T06:16:47.113Z,84.20
2019-03-25T06:17:50.558Z,79.55
2019-03-25T06:18:53.991Z,73.07
2019-03-25T06:19:57.513Z,74.22
2019-03-25T06:21:00.952Z,74.90
2019-03-25T06:22:04.410Z,69.77
2019-03-25T06:23:07.918Z,74.50
2019-03-25T06:24:11.345Z,70.65
2019-03-25T06:25:14.917Z,61.73
2019-03-25T06:26:18.350Z,69.67
2019-03-25T06:27:21.812Z,64.25
2019-03-25T06:28:25.244Z,52.00
2019-03-25T06:29:28.794Z,57.98
2019-03-25T06:30:32.301Z,53.40
2019-03-25T06:31:35.734Z,56.08
2019-03-25T06:32:39.330Z,56.13
2019-03-25T06:33:42.779Z,60.48
2019-03-25T06:34:46.310Z,52.90
2019-03-25T06:35:49.872Z,55.90
2019-03-25T06:36:53.468Z,56.02
2019-03-25T06:37:57.014Z,51.60
2019-03-25T06:39:00.467Z,52.23
2019-03-25T06:40:06.536Z,57.62
2019-03-25T06:41:10.041Z,59.90
2019-03-25T06:42:13.536Z,52.20
2019-03-25T06:43:17.126Z,47.27
2019-03-25T06:44:20.593Z,49.70
2019-03-25T06:45:24.146Z,51.33
2019-03-25T06:46:27.605Z,50.20
2019-03-25T06:47:31.060Z,53.15
2019-03-25T06:48:34.585Z,47.60
2019-03-25T06:49:38.028Z,46.08
2019-03-25T06:50:41.549Z,57.10
2019-03-25T06:51:45.409Z,59.45
2019-03-25T06:52:48.890Z,51.37
2019-03-25T06:53:52.426Z,47.95
2019-03-25T06:54:55.955Z,52.05
2019-03-25T06:55:59.390Z,59.50
2019-03-25T06:57:02.837Z,49.50
2019-03-25T06:58:06.398Z,54.05
2019-03-25T06:59:09.859Z,40.38
2019-03-25T07:00:13.630Z,41.73
2019-03-25T07:01:17.053Z,39.38
2019-03-25T07:02:20.482Z,48.78
2019-03-25T07:03:24.051Z,36.48
2019-03-25T07:04:27.498Z,40.00
2019-03-25T07:05:30.942Z,47.20
2019-03-25T07:06:34.524Z,39.10
2019-03-25T07:07:38.098Z,40.33
2019-03-25T07:08:41.528Z,39.33
2019-03-25T07:09:45.096Z,44.90
2019-03-25T07:10:48.889Z,39.78
2019-03-25T07:11:52.393Z,38.53
2019-03-25T07:12:56.041Z,39.10
2019-03-25T07:13:59.709Z,53.65
2019-03-25T07:15:03.235Z,70.97
2019-03-25T07:16:06.796Z,38.28
2019-03-25T07:17:10.327Z,46.25
2019-03-25T07:18:13.841Z,45.78
2019-03-25T07:19:17.350Z,39.53
2019-03-25T07:20:20.818Z,49.30
2019-03-25T07:21:24.324Z,43.48
2019-03-25T07:22:27.876Z,36.08
2019-03-25T07:23:31.385Z,37.63
2019-03-25T07:24:34.869Z,42.88
2019-03-25T07:25:38.407Z,36.23
2019-03-25T07:26:41.960Z,40.33
2019-03-25T07:27:45.445Z,45.00
2019-03-25T07:28:48.998Z,39.48
2019-03-25T07:29:52.530Z,40.08
2019-03-25T07:30:56.109Z,38.45
2019-03-25T07:31:59.563Z,41.83
2019-03-25T07:33:03.059Z,37.58
2019-03-25T07:34:06.495Z,54.73
2019-03-25T07:35:10.157Z,50.63
2019-03-25T07:36:13.606Z,35.35
2019-03-25T07:37:17.043Z,41.75
2019-03-25T07:38:20.505Z,38.63
2019-03-25T07:39:23.933Z,43.38
2019-03-25T07:40:27.429Z,43.50
2019-03-25T07:41:30.876Z,42.83
2019-03-25T07:42:34.378Z,35.70
2019-03-25T07:43:37.806Z,36.98
2019-03-25T07:44:41.238Z,31.30
2019-03-25T07:45:44.669Z,39.75
2019-03-25T07:46:48.118Z,30.50
2019-03-25T07:47:51.639Z,37.98
2019-03-25T07:48:55.090Z,36.30
2019-03-25T07:50:01.286Z,35.88
2019-03-25T07:51:05.316Z,35.58
2019-03-25T07:52:08.762Z,31.12
2019-03-25T07:53:12.197Z,39.08
2019-03-25T07:54:15.634Z,39.05
2019-03-25T07:55:19.072Z,44.50
2019-03-25T07:56:22.523Z,31.10
2019-03-25T07:57:25.974Z,42.98
2019-03-25T07:58:29.416Z,43.28
2019-03-25T07:59:32.917Z,39.25
2019-03-25T08:00:36.414Z,30.62
2019-03-25T08:01:39.901Z,42.88
2019-03-25T08:02:43.383Z,36.38
2019-03-25T08:03:46.812Z,33.95
2019-03-25T08:04:50.238Z,35.43
2019-03-25T08:05:53.659Z,50.60
2019-03-25T08:06:57.160Z,34.92
2019-03-25T08:08:00.613Z,40.23
2019-03-25T08:09:05.029Z,42.70
2019-03-25T08:10:09.027Z,38.48
2019-03-25T08:11:12.503Z,37.30
2019-03-25T08:12:16.012Z,35.30
2019-03-25T08:13:19.559Z,37.53
2019-03-25T08:14:23.082Z,32.25
2019-03-25T08:15:26.524Z,36.50
2019-03-25T08:16:29.966Z,34.60
2019-03-25T08:17:33.460Z,43.75
2019-03-25T08:18:36.907Z,29.67
2019-03-25T08:19:40.362Z,32.03
2019-03-25T08:20:43.792Z,35.05
2019-03-25T08:21:47.234Z,30.92
2019-03-25T08:22:50.668Z,30.90
2019-03-25T08:23:54.211Z,27.37
2019-03-25T08:24:57.666Z,34.08
2019-03-25T08:26:01.124Z,39.40
2019-03-25T08:27:04.757Z,37.88
2019-03-25T08:28:08.188Z,32.15
2019-03-25T08:29:11.710Z,35.00
2019-03-25T08:30:15.269Z,29.98
2019-03-25T08:31:18.702Z,50.12
2019-03-25T08:32:22.290Z,29.40
2019-03-25T08:33:25.725Z,35.45
2019-03-25T08:34:29.184Z,36.35
2019-03-25T08:35:32.626Z,32.28
2019-03-25T08:36:36.080Z,35.80
2019-03-25T08:37:39.606Z,51.63
2019-03-25T08:38:43.118Z,31.10
2019-03-25T08:39:46.633Z,30.35
2019-03-25T08:40:50.145Z,33.67
2019-03-25T08:41:53.746Z,32.73
2019-03-25T08:42:57.202Z,47.33
2019-03-25T08:44:00.668Z,29.82
2019-03-25T08:45:05.268Z,52.75
2019-03-25T08:46:08.773Z,41.83
2019-03-25T08:47:12.202Z,37.85
2019-03-25T08:48:15.638Z,43.40
2019-03-25T08:49:19.081Z,34.25
2019-03-25T08:50:22.577Z,42.15
2019-03-25T08:51:26.007Z,31.33
2019-03-25T08:52:29.511Z,35.40
2019-03-25T08:53:33.013Z,37.33
2019-03-25T08:54:37.920Z,34.27
2019-03-25T08:55:41.606Z,30.10
2019-03-25T08:56:45.117Z,28.80
2019-03-25T08:57:48.722Z,28.83
2019-03-25T08:58:52.168Z,32.17
2019-03-25T08:59:57.691Z,35.03
2019-03-25T09:01:00.955Z,27.27
2019-03-25T09:02:04.542Z,37.08
2019-03-25T09:03:07.965Z,27.40
2019-03-25T09:04:11.405Z,33.85
2019-03-25T09:05:15.077Z,30.40
2019-03-25T09:06:18.668Z,32.88
2019-03-25T09:07:22.214Z,25.92
2019-03-25T09:08:25.663Z,37.20
2019-03-25T09:09:29.104Z,34.25
2019-03-25T09:10:32.541Z,27.30
2019-03-25T09:11:36.111Z,31.57
2019-03-25T09:12:39.550Z,35.33
2019-03-25T09:13:43.049Z,30.15
2019-03-25T09:14:46.478Z,32.98
2019-03-25T09:15:49.919Z,27.05
2019-03-25T09:16:53.367Z,32.55
2019-03-25T09:17:56.891Z,28.95
2019-03-25T09:19:00.322Z,29.70
2019-03-25T09:20:06.392Z,30.65
2019-03-25T09:21:09.906Z,29.35
2019-03-25T09:22:13.356Z,31.57
2019-03-25T09:23:16.858Z,32.67
2019-03-25T09:24:20.290Z,37.42
2019-03-25T09:25:23.724Z,25.52
2019-03-25T09:26:27.237Z,26.23
2019-03-25T09:27:30.701Z,30.00
2019-03-25T09:28:34.194Z,24.45
2019-03-25T09:29:37.626Z,25.30
2019-03-25T09:30:52.648Z,26.23
2019-03-25T09:31:56.073Z,21.17
2019-03-25T09:32:59.595Z,21.57
2019-03-25T09:34:03.027Z,19.82
2019-03-25T09:35:08.862Z,38.70
2019-03-25T09:36:12.362Z,29.72
2019-03-25T09:37:15.882Z,37.05
2019-03-25T09:38:19.397Z,26.50
2019-03-25T09:39:22.853Z,38.23
2019-03-25T09:40:26.360Z,50.05
2019-03-25T09:41:29.788Z,32.65
2019-03-25T09:42:33.223Z,26.90
2019-03-25T09:43:36.733Z,17.40
2019-03-25T09:44:40.163Z,29.48
2019-03-25T09:45:43.592Z,21.10
2019-03-25T09:46:47.021Z,21.37
2019-03-25T09:47:50.444Z,29.37
2019-03-25T09:48:53.895Z,26.68
2019-03-25T09:49:57.389Z,18.90
2019-03-25T09:51:00.848Z,17.82
2019-03-25T09:52:04.340Z,20.35
2019-03-25T09:53:07.935Z,21.25
2019-03-25T09:54:11.608Z,17.57
2019-03-25T09:55:16.583Z,28.75
2019-03-25T09:56:20.364Z,26.20
2019-03-25T09:57:23.791Z,32.00
2019-03-25T09:58:36.194Z,20.25
2019-03-25T09:59:32.540Z,19.23
2019-03-25T10:00:36.115Z,15.43
2019-03-25T10:01:39.623Z,26.77
2019-03-25T10:02:43.058Z,30.45
2019-03-25T10:03:46.553Z,22.65
2019-03-25T10:04:50.081Z,26.35
2019-03-25T10:05:53.597Z,13.05
2019-03-25T10:06:57.776Z,17.75
2019-03-25T10:08:01.219Z,25.52
2019-03-25T10:09:07.708Z,18.50
2019-03-25T10:10:11.267Z,18.40
2019-03-25T10:11:14.659Z,19.73
2019-03-25T10:12:18.085Z,24.55
2019-03-25T10:13:21.526Z,22.10
2019-03-25T10:14:24.954Z,16.75
2019-03-25T10:15:28.406Z,42.33
2019-03-25T10:16:31.829Z,20.90
2019-03-25T10:17:35.279Z,24.00
2019-03-25T10:18:38.709Z,21.05
2019-03-25T10:19:42.296Z,20.75
2019-03-25T10:20:45.738Z,22.93
2019-03-25T10:21:49.170Z,18.90
2019-03-25T10:22:52.609Z,40.25
2019-03-25T10:23:56.071Z,21.45
2019-03-25T10:24:59.485Z,19.67
2019-03-25T10:26:03.005Z,16.62
2019-03-25T10:27:06.433Z,19.10
2019-03-25T10:28:09.871Z,20.45
2019-03-25T10:29:13.323Z,24.07
2019-03-25T10:30:18.905Z,12.65
2019-03-25T10:31:22.324Z,17.98
2019-03-25T10:32:25.777Z,19.50
2019-03-25T10:33:29.197Z,19.40
2019-03-25T10:34:32.625Z,20.85
2019-03-25T10:35:36.053Z,16.55
2019-03-25T10:36:39.564Z,19.98
2019-03-25T10:37:43.151Z,16.17
2019-03-25T10:38:46.577Z,17.67
2019-03-25T10:39:50.001Z,13.88
2019-03-25T10:40:53.430Z,17.10
2019-03-25T10:41:56.883Z,11.15
2019-03-25T10:43:00.329Z,16.77
2019-03-25T10:44:03.903Z,12.37
2019-03-25T10:45:08.173Z,11.18
2019-03-25T10:46:11.594Z,18.60
2019-03-25T10:47:15.121Z,19.02
2019-03-25T10:48:18.566Z,13.22
2019-03-25T10:49:21.999Z,16.25
2019-03-25T10:50:25.434Z,13.25
2019-03-25T10:51:28.871Z,8.40
2019-03-25T10:52:32.385Z,8.40
2019-03-25T10:53:35.861Z,13.00
2019-03-25T10:54:39.368Z,9.35
2019-03-25T10:55:42.854Z,10.10
2019-03-25T10:56:49.259Z,14.25
2019-03-25T10:57:51.617Z,11.75
2019-03-25T10:58:58.268Z,13.88
2019-03-25T11:00:00.325Z,6.22
2019-03-25T11:01:03.789Z,11.63
2019-03-25T11:02:07.361Z,8.13
2019-03-25T11:03:10.872Z,7.75
2019-03-25T11:04:14.303Z,9.08
2019-03-25T11:05:17.871Z,18.48
2019-03-25T11:06:21.438Z,14.13
2019-03-25T11:07:24.931Z,11.48
2019-03-25T11:08:28.415Z,8.40
2019-03-25T11:09:31.920Z,11.28
2019-03-25T11:10:35.424Z,5.87
2019-03-25T11:11:38.857Z,8.90
2019-03-25T11:12:42.283Z,7.90
2019-03-25T11:13:45.806Z,14.45
2019-03-25T11:14:49.239Z,6.75
2019-03-25T11:15:52.732Z,12.03
2019-03-25T11:16:56.239Z,11.68
2019-03-25T11:17:59.679Z,13.28
2019-03-25T11:19:03.137Z,8.68
2019-03-25T11:20:09.091Z,12.78
2019-03-25T11:21:12.582Z,9.95
2019-03-25T11:22:15.998Z,6.35
2019-03-25T11:23:19.518Z,11.50
2019-03-25T11:24:23.034Z,7.80
2019-03-25T11:25:26.579Z,23.35
2019-03-25T11:26:30.057Z,22.77
2019-03-25T11:27:33.500Z,10.35
2019-03-25T11:28:36.948Z,17.75
2019-03-25T11:29:40.378Z,11.33
2019-03-25T11:30:57.307Z,7.85
2019-03-25T11:32:01.004Z,5.00
2019-03-25T11:33:04.431Z,9.33
2019-03-25T11:34:07.993Z,11.22
2019-03-25T11:35:11.848Z,4.50
2019-03-25T11:36:15.280Z,7.95
2019-03-25T11:37:18.783Z,10.88
2019-03-25T11:38:22.350Z,15.83
2019-03-25T11:39:25.877Z,11.88
2019-03-25T11:40:29.380Z,9.20
2019-03-25T11:41:32.804Z,10.15
2019-03-25T11:42:36.299Z,6.87
2019-03-25T11:43:39.749Z,5.80
2019-03-25T11:44:43.182Z,6.65
2019-03-25T11:45:46.752Z,9.33
2019-03-25T11:46:50.169Z,9.78
2019-03-25T11:47:53.596Z,8.95
2019-03-25T11:48:57.073Z,10.98
2019-03-25T11:50:00.502Z,6.65
2019-03-25T11:51:04.012Z,7.90
2019-03-25T11:52:07.446Z,6.17
2019-03-25T11:53:10.876Z,4.28
2019-03-25T11:54:14.328Z,10.23
2019-03-25T11:55:17.921Z,6.15
2019-03-25T11:56:21.332Z,4.72
2019-03-25T11:57:24.762Z,11.12
2019-03-25T11:58:28.269Z,6.87
2019-03-25T11:59:31.870Z,21.48
2019-03-25T12:00:35.298Z,10.45
2019-03-25T12:01:38.726Z,6.58
2019-03-25T12:02:42.153Z,6.83
2019-03-25T12:03:45.658Z,15.43
2019-03-25T12:04:49.124Z,7.30
2019-03-25T12:05:52.629Z,12.58
2019-03-25T12:06:56.131Z,13.45
2019-03-25T12:07:59.575Z,12.88
2019-03-25T12:09:03.483Z,7.90
2019-03-25T12:10:07.455Z,7.05
2019-03-25T12:11:11.020Z,16.87
2019-03-25T12:12:14.468Z,10.58
2019-03-25T12:13:18.023Z,5.15
2019-03-25T12:14:21.470Z,5.35
2019-03-25T12:15:24.894Z,3.58
2019-03-25T12:16:28.396Z,6.08
2019-03-25T12:17:31.831Z,6.05
2019-03-25T12:18:35.336Z,9.80
2019-03-25T12:19:38.781Z,9.73
2019-03-25T12:20:42.287Z,10.70
2019-03-25T12:21:45.791Z,13.48
2019-03-25T12:22:49.222Z,7.40
2019-03-25T12:23:52.728Z,7.53
2019-03-25T12:24:56.208Z,4.97
2019-03-25T12:25:59.690Z,6.42
2019-03-25T12:27:03.118Z,7.33
2019-03-25T12:28:06.629Z,13.15
2019-03-25T12:29:10.068Z,10.85
2019-03-25T12:30:13.649Z,11.33
2019-03-25T12:31:17.214Z,9.88
2019-03-25T12:32:20.643Z,11.18
2019-03-25T12:33:24.148Z,5.40
2019-03-25T12:34:27.799Z,6.78
2019-03-25T12:35:31.474Z,6.08
2019-03-25T12:36:34.905Z,7.50
2019-03-25T12:37:38.391Z,5.05
2019-03-25T12:38:41.823Z,9.43
2019-03-25T12:39:45.286Z,9.10
2019-03-25T12:40:48.798Z,10.55
2019-03-25T12:41:52.233Z,16.07
2019-03-25T12:42:55.665Z,7.15
2019-03-25T12:43:59.105Z,9.93
2019-03-25T12:45:02.566Z,7.65
2019-03-25T12:46:06.135Z,9.28
2019-03-25T12:47:09.625Z,6.35
2019-03-25T12:48:13.127Z,13.25
2019-03-25T12:49:16.568Z,13.88
2019-03-25T12:50:20.155Z,6.40
2019-03-25T12:51:23.648Z,8.10
2019-03-25T12:52:27.081Z,22.20
2019-03-25T12:53:30.532Z,11.08
2019-03-25T12:54:33.959Z,4.72
2019-03-25T12:55:37.539Z,5.95
2019-03-25T12:56:40.971Z,7.42
2019-03-25T12:57:44.407Z,10.98
2019-03-25T12:58:47.836Z,10.18
2019-03-25T12:59:51.261Z,7.95
2019-03-25T13:00:54.700Z,7.95
2019-03-25T13:01:58.144Z,5.62
2019-03-25T13:03:01.570Z,6.08
2019-03-25T13:04:05.001Z,11.68
2019-03-25T13:05:08.670Z,7.53
2019-03-25T13:06:12.105Z,7.50
2019-03-25T13:07:15.545Z,6.17
2019-03-25T13:08:18.995Z,5.10
2019-03-25T13:09:22.395Z,9.20
2019-03-25T13:10:25.892Z,9.55
2019-03-25T13:11:29.337Z,7.17
2019-03-25T13:12:32.790Z,6.53
2019-03-25T13:13:36.225Z,4.42
2019-03-25T13:14:39.719Z,7.87
2019-03-25T13:15:43.152Z,10.45
2019-03-25T13:16:46.675Z,23.45
2019-03-25T13:17:50.171Z,7.87
2019-03-25T13:18:53.609Z,12.60
2019-03-25T13:19:57.038Z,12.05
2019-03-25T13:21:00.593Z,10.88
2019-03-25T13:22:04.105Z,8.35
2019-03-25T13:23:07.615Z,9.50
2019-03-25T13:24:11.141Z,10.38
2019-03-25T13:25:14.591Z,7.40
2019-03-25T13:26:18.050Z,12.65
2019-03-25T13:27:21.491Z,8.83
2019-03-25T13:28:24.936Z,7.72
2019-03-25T13:29:28.381Z,10.00
2019-03-25T13:30:31.966Z,12.90